createdAt,value
2023-04-23T00:01:58.242Z,10.30
2023-04-23T00:04:26.981Z,10.20
2023-04-23T00:06:55.118Z,10.10
2023-04-23T00:09:24.150Z,10.10
2023-04-23T00:11:51.655Z,10.00
2023-04-23T00:14:18.950Z,10.00
2023-04-23T00:16:46.372Z,9.90
2023-04-23T00:19:18.012Z,9.90
2023-04-23T00:21:45.730Z,9.90
2023-04-23T00:24:12.852Z,9.90
2023-04-23T00:26:40.030Z,9.90
2023-04-23T00:29:07.328Z,9.90
2023-04-23T00:31:34.622Z,9.80
2023-04-23T00:34:01.897Z,9.70
2023-04-23T00:36:29.109Z,9.70
2023-04-23T00:38:56.216Z,9.70
2023-04-23T00:41:24.054Z,9.60
2023-04-23T00:43:53.345Z,9.70
2023-04-23T00:46:21.142Z,9.60
2023-04-23T00:48:48.266Z,9.60
2023-04-23T00:51:17.453Z,9.70
2023-04-23T00:53:44.597Z,9.60
2023-04-23T00:56:12.427Z,9.60
2023-04-23T00:58:40.842Z,9.60
2023-04-23T01:01:08.162Z,9.60
2023-04-23T01:03:37.174Z,9.50
2023-04-23T01:06:05.253Z,9.60
2023-04-23T01:08:34.297Z,9.50
2023-04-23T01:11:03.870Z,9.50
2023-04-23T01:13:31.286Z,9.50
2023-04-23T01:15:59.679Z,9.40
2023-04-23T01:18:27.769Z,9.30
2023-04-23T01:20:54.910Z,9.20
2023-04-23T01:23:22.685Z,9.10
2023-04-23T01:25:50.203Z,9.10
2023-04-23T01:28:17.672Z,9.00
2023-04-23T01:30:46.846Z,9.00
2023-04-23T01:33:15.241Z,9.00
2023-04-23T01:35:43.806Z,9.00
2023-04-23T01:38:14.297Z,9.10
2023-04-23T01:40:41.493Z,9.20
2023-04-23T01:43:09.934Z,9.20
2023-04-23T01:45:37.441Z,9.20
2023-04-23T01:48:04.870Z,9.20
2023-04-23T01:50:32.083Z,9.10
2023-04-23T01:52:59.284Z,9.00
2023-04-23T01:55:26.562Z,9.00
2023-04-23T01:57:53.656Z,9.00
2023-04-23T02:00:20.913Z,8.90
2023-04-23T02:02:48.431Z,8.90
2023-04-23T02:05:18.860Z,8.90
2023-04-23T02:07:48.373Z,8.90
2023-04-23T02:10:16.170Z,8.90
2023-04-23T02:12:43.916Z,8.80
2023-04-23T02:15:12.130Z,8.90
2023-04-23T02:17:42.292Z,8.80
2023-04-23T02:20:10.743Z,8.80
2023-04-23T02:22:42.733Z,8.80
2023-04-23T02:25:11.212Z,8.80
2023-04-23T02:27:38.407Z,8.80
2023-04-23T02:30:08.609Z,8.80
2023-04-23T02:32:37.546Z,8.80
2023-04-23T02:35:06.794Z,8.70
2023-04-23T02:37:34.122Z,8.70
2023-04-23T02:40:01.728Z,8.70
2023-04-23T02:42:28.784Z,8.70
2023-04-23T02:44:55.937Z,8.60
2023-04-23T02:47:23.109Z,8.50
2023-04-23T02:49:50.444Z,8.50
2023-04-23T02:52:17.726Z,8.50
2023-04-23T02:54:44.846Z,8.50
2023-04-23T02:57:14.636Z,8.50
2023-04-23T02:59:41.718Z,8.50
2023-04-23T03:02:08.971Z,8.60
2023-04-23T03:04:36.158Z,8.70
2023-04-23T03:07:03.358Z,8.70
2023-04-23T03:09:30.469Z,8.70
2023-04-23T03:11:58.121Z,8.70
2023-04-23T03:14:25.547Z,8.70
2023-04-23T03:16:52.647Z,8.70
2023-04-23T03:19:19.789Z,8.60
2023-04-23T03:21:47.036Z,8.50
2023-04-23T03:24:15.268Z,8.50
2023-04-23T03:26:42.401Z,8.40
2023-04-23T03:29:10.734Z,8.50
2023-04-23T03:31:37.803Z,8.40
2023-04-23T03:34:04.895Z,8.40
2023-04-23T03:36:32.558Z,8.40
2023-04-23T03:38:59.737Z,8.30
2023-04-23T03:41:26.847Z,8.20
2023-04-23T03:43:54.011Z,8.30
2023-04-23T03:46:21.217Z,8.40
2023-04-23T03:48:48.420Z,8.40
2023-04-23T03:51:16.264Z,8.40
2023-04-23T03:53:43.382Z,8.40
2023-04-23T03:56:10.637Z,8.40
2023-04-23T03:58:38.291Z,8.30
2023-04-23T04:01:05.907Z,8.30
2023-04-23T04:03:33.173Z,8.30
2023-04-23T04:06:00.415Z,8.40
2023-04-23T04:08:27.529Z,8.40
2023-04-23T04:10:54.765Z,8.40
2023-04-23T04:13:22.117Z,8.50
2023-04-23T04:15:49.310Z,8.60
2023-04-23T04:18:16.516Z,8.80
2023-04-23T04:20:44.514Z,9.00
2023-04-23T04:23:11.609Z,9.20
2023-04-23T04:25:40.335Z,9.40
2023-04-23T04:28:09.643Z,9.60
2023-04-23T04:30:36.865Z,9.80
2023-04-23T04:33:04.074Z,10.00
2023-04-23T04:35:31.322Z,10.20
2023-04-23T04:37:59.018Z,10.30
2023-04-23T04:40:28.890Z,10.50
2023-04-23T04:42:56.037Z,10.60
2023-04-23T04:45:24.034Z,10.70
2023-04-23T04:47:51.686Z,10.80
2023-04-23T04:50:18.864Z,11.00
2023-04-23T04:52:46.221Z,11.20
2023-04-23T04:55:13.371Z,11.40
2023-04-23T04:57:40.472Z,11.50
2023-04-23T05:00:29.598Z,11.70
2023-04-23T05:02:58.806Z,11.80
2023-04-23T05:05:27.078Z,12.00
2023-04-23T05:07:54.605Z,12.20
2023-04-23T05:10:22.267Z,12.30
2023-04-23T05:12:49.494Z,12.40
2023-04-23T05:15:16.681Z,12.60
2023-04-23T05:17:44.235Z,12.80
2023-04-23T05:20:11.792Z,13.00
2023-04-23T05:22:39.556Z,13.10
2023-04-23T05:25:07.739Z,13.20
2023-04-23T05:27:35.507Z,13.20
2023-04-23T05:30:04.507Z,13.10
2023-04-23T05:32:31.762Z,13.40
2023-04-23T05:35:00.244Z,13.30
2023-04-23T05:37:27.330Z,12.80
2023-04-23T05:39:54.412Z,13.10
2023-04-23T05:42:21.871Z,13.30
2023-04-23T05:44:48.999Z,13.50
2023-04-23T05:47:16.174Z,13.70
2023-04-23T05:49:43.295Z,14.00
2023-04-23T05:52:10.560Z,14.00
2023-04-23T05:54:37.778Z,14.10
2023-04-23T05:57:05.301Z,13.70
2023-04-23T05:59:32.818Z,13.70
2023-04-23T06:02:00.488Z,14.10
2023-04-23T06:04:27.854Z,14.60
2023-04-23T06:06:55.302Z,14.50
2023-04-23T06:09:22.641Z,14.50
2023-04-23T06:11:50.877Z,14.80
2023-04-23T06:14:18.033Z,15.00
2023-04-23T06:16:45.343Z,15.30
2023-04-23T06:19:13.002Z,15.40
2023-04-23T06:21:40.405Z,15.60
2023-04-23T06:24:08.320Z,15.80
2023-04-23T06:26:35.585Z,16.10
2023-04-23T06:29:03.007Z,16.20
2023-04-23T06:31:30.646Z,16.10
2023-04-23T06:33:57.898Z,16.00
2023-04-23T06:36:25.243Z,15.80
2023-04-23T06:38:52.448Z,15.70
2023-04-23T06:41:19.776Z,15.60
2023-04-23T06:43:48.500Z,15.70
2023-04-23T06:46:15.819Z,16.10
2023-04-23T06:48:43.078Z,16.30
2023-04-23T06:51:10.192Z,16.50
2023-04-23T06:53:37.462Z,16.80
2023-04-23T06:56:04.762Z,16.70
2023-04-23T06:58:32.384Z,16.80
2023-04-23T07:01:00.565Z,16.80
2023-04-23T07:03:28.638Z,17.00
2023-04-23T07:05:55.973Z,17.30
2023-04-23T07:08:23.154Z,17.30
2023-04-23T07:10:50.596Z,17.50
2023-04-23T07:13:17.797Z,17.80
2023-04-23T07:15:45.188Z,18.00
2023-04-23T07:18:12.540Z,18.30
2023-04-23T07:20:40.104Z,18.50
2023-04-23T07:23:07.723Z,18.50
2023-04-23T07:25:34.911Z,18.60
2023-04-23T07:28:02.184Z,18.50
2023-04-23T07:30:29.575Z,18.70
2023-04-23T07:32:57.234Z,18.90
2023-04-23T07:35:24.483Z,19.10
2023-04-23T07:37:54.058Z,19.20
2023-04-23T07:40:22.702Z,19.20
2023-04-23T07:42:51.239Z,19.10
2023-04-23T07:45:19.421Z,19.10
2023-04-23T07:47:49.538Z,19.10
2023-04-23T07:50:16.803Z,19.20
2023-04-23T07:52:47.537Z,19.40
2023-04-23T07:55:15.548Z,19.50
2023-04-23T07:57:43.087Z,19.40
2023-04-23T08:00:11.503Z,19.70
2023-04-23T08:02:38.764Z,19.80
2023-04-23T08:05:07.105Z,19.90
2023-04-23T08:07:34.487Z,20.00
2023-04-23T08:10:05.445Z,20.10
2023-04-23T08:12:36.011Z,20.20
2023-04-23T08:15:03.941Z,20.60
2023-04-23T08:17:31.188Z,20.60
2023-04-23T08:19:58.295Z,20.70
2023-04-23T08:22:25.665Z,20.70
2023-04-23T08:24:53.260Z,20.90
2023-04-23T08:27:20.517Z,21.10
2023-04-23T08:29:47.764Z,21.20
2023-04-23T08:32:15.070Z,21.40
2023-04-23T08:34:42.306Z,21.60
2023-04-23T08:37:16.581Z,21.80
2023-04-23T08:39:53.574Z,22.00
2023-04-23T08:42:48.036Z,22.10
2023-04-23T08:45:15.388Z,21.80
2023-04-23T08:47:46.936Z,22.00
2023-04-23T08:50:18.989Z,21.90
2023-04-23T08:53:10.757Z,21.90
2023-04-23T08:55:44.222Z,21.60
2023-04-23T08:58:16.886Z,21.30
2023-04-23T09:00:44.220Z,21.60
2023-04-23T09:03:12.529Z,21.60
2023-04-23T09:05:40.868Z,21.60
2023-04-23T09:08:08.822Z,21.50
2023-04-23T09:10:42.125Z,21.60
2023-04-23T09:13:09.970Z,21.90
2023-04-23T09:15:45.674Z,22.10
2023-04-23T09:18:14.075Z,22.30
2023-04-23T09:20:50.235Z,22.30
2023-04-23T09:23:26.754Z,22.30
2023-04-23T09:25:54.310Z,22.00
2023-04-23T09:28:21.423Z,22.00
2023-04-23T09:30:49.320Z,22.30
2023-04-23T09:33:22.659Z,22.50
2023-04-23T09:35:55.157Z,22.40
2023-04-23T09:38:22.783Z,22.30
2023-04-23T09:40:51.075Z,22.40
2023-04-23T09:43:31.254Z,22.30
2023-04-23T09:45:58.413Z,22.30
2023-04-23T09:48:40.668Z,22.30
2023-04-23T09:51:07.832Z,22.40
2023-04-23T09:53:46.415Z,22.10
2023-04-23T09:56:13.638Z,22.20
2023-04-23T09:58:40.746Z,22.40
2023-04-23T10:01:09.500Z,22.50
2023-04-23T10:03:37.860Z,22.50
2023-04-23T10:06:09.193Z,22.30
2023-04-23T10:08:44.708Z,22.40
2023-04-23T10:13:47.514Z,22.70
2023-04-23T10:16:23.141Z,22.70
2023-04-23T10:18:57.198Z,22.80
2023-04-23T10:21:39.464Z,23.00
2023-04-23T10:24:15.011Z,22.90
2023-04-23T10:26:43.900Z,23.00
2023-04-23T10:29:16.568Z,23.00
2023-04-23T10:31:46.911Z,23.20
2023-04-23T10:34:16.780Z,23.10
2023-04-23T10:36:44.129Z,23.20
2023-04-23T10:39:12.491Z,23.70
2023-04-23T10:41:41.706Z,23.90
2023-04-23T10:44:44.938Z,23.70
2023-04-23T10:47:14.337Z,23.70
2023-04-23T10:49:42.820Z,23.60
2023-04-23T10:52:20.626Z,23.80
2023-04-23T10:54:57.251Z,24.10
2023-04-23T10:57:24.428Z,24.40
2023-04-23T10:59:56.542Z,24.50
2023-04-23T11:02:25.051Z,24.70
2023-04-23T11:04:59.517Z,24.70
2023-04-23T11:07:31.792Z,24.50
2023-04-23T11:10:13.646Z,24.30
2023-04-23T11:12:41.576Z,24.00
2023-04-23T11:15:14.124Z,24.00
2023-04-23T11:17:44.508Z,23.90
2023-04-23T11:20:22.748Z,23.90
2023-04-23T11:22:53.618Z,24.00
2023-04-23T11:25:23.343Z,23.80
2023-04-23T11:27:52.323Z,23.80
2023-04-23T11:30:21.698Z,24.00
2023-04-23T11:32:51.595Z,24.40
2023-04-23T11:35:20.804Z,24.30
2023-04-23T11:37:48.765Z,24.30
2023-04-23T11:40:20.596Z,24.60
2023-04-23T11:42:50.043Z,24.80
2023-04-23T11:45:22.168Z,24.50
2023-04-23T11:47:51.411Z,24.30
2023-04-23T11:50:33.705Z,24.40
2023-04-23T11:53:09.063Z,24.50
2023-04-23T11:55:36.565Z,24.40
2023-04-23T11:58:04.329Z,23.90
2023-04-23T12:00:31.519Z,23.70
2023-04-23T12:03:02.547Z,23.90
2023-04-23T12:05:39.898Z,23.90
2023-04-23T12:08:18.490Z,24.10
2023-04-23T12:10:59.398Z,24.30
2023-04-23T12:13:31.652Z,24.30
2023-04-23T12:16:03.954Z,24.10
2023-04-23T12:18:32.862Z,24.50
2023-04-23T12:21:11.668Z,24.60
2023-04-23T12:23:41.795Z,25.00
2023-04-23T12:26:13.877Z,25.00
2023-04-23T12:28:58.383Z,25.10
2023-04-23T12:31:31.185Z,25.00
2023-04-23T12:34:09.735Z,25.20
2023-04-23T12:36:38.059Z,25.30
2023-04-23T12:39:22.037Z,25.40
2023-04-23T12:41:52.350Z,25.00
2023-04-23T12:44:19.569Z,25.00
2023-04-23T12:46:56.999Z,24.90
2023-04-23T12:49:25.125Z,25.10
2023-04-23T12:51:52.868Z,25.20
2023-04-23T12:54:20.078Z,25.20
2023-04-23T12:56:47.234Z,25.30
2023-04-23T12:59:14.395Z,25.20
2023-04-23T13:01:41.926Z,24.70
2023-04-23T13:04:09.342Z,24.60
2023-04-23T13:06:36.648Z,24.60
2023-04-23T13:09:05.587Z,24.80
2023-04-23T13:11:33.438Z,25.00
2023-04-23T13:14:00.621Z,24.90
2023-04-23T13:16:28.040Z,24.90
2023-04-23T13:18:55.611Z,24.60
2023-04-23T13:21:23.279Z,24.60
2023-04-23T13:23:51.523Z,24.70
2023-04-23T13:26:18.954Z,24.70
2023-04-23T13:28:46.269Z,24.70
2023-04-23T13:31:13.884Z,24.70
2023-04-23T13:33:42.197Z,24.80
2023-04-23T13:36:09.429Z,24.60
2023-04-23T13:38:36.692Z,24.60
2023-04-23T13:41:04.669Z,24.90
2023-04-23T13:43:31.883Z,25.00
2023-04-23T13:46:01.407Z,25.10
2023-04-23T13:48:31.291Z,25.30
2023-04-23T13:51:01.333Z,25.40
2023-04-23T13:53:28.844Z,25.20
2023-04-23T13:55:56.852Z,25.20
2023-04-23T13:58:24.349Z,25.20
2023-04-23T14:00:52.525Z,24.90
2023-04-23T14:03:20.660Z,24.90
2023-04-23T14:05:47.992Z,25.10
2023-04-23T14:08:15.134Z,25.10
2023-04-23T14:10:43.702Z,24.90
2023-04-23T14:13:11.154Z,24.90
2023-04-23T14:15:38.453Z,25.00
2023-04-23T14:18:05.934Z,25.00
2023-04-23T14:20:33.220Z,25.20
2023-04-23T14:23:22.266Z,25.20
2023-04-23T14:25:54.330Z,25.10
2023-04-23T14:28:39.348Z,24.90
2023-04-23T14:31:06.665Z,24.80
2023-04-23T14:33:33.868Z,24.80
2023-04-23T14:36:01.081Z,25.10
2023-04-23T14:38:28.315Z,25.20
2023-04-23T14:40:56.390Z,25.70
2023-04-23T14:43:23.658Z,26.40
2023-04-23T14:45:52.139Z,26.90
2023-04-23T14:48:19.321Z,26.40
2023-04-23T14:50:46.672Z,26.60
2023-04-23T14:53:13.812Z,27.30
2023-04-23T14:55:43.527Z,27.70
2023-04-23T14:58:10.772Z,28.60
2023-04-23T15:00:37.899Z,29.20
2023-04-23T15:03:11.179Z,29.40
2023-04-23T15:05:40.233Z,29.70
2023-04-23T15:08:08.047Z,30.10
2023-04-23T15:10:35.251Z,30.30
2023-04-23T15:13:29.704Z,29.10
2023-04-23T15:16:02.518Z,28.30
2023-04-23T15:18:29.961Z,27.50
2023-04-23T15:20:57.171Z,27.00
2023-04-23T15:23:24.762Z,26.60
2023-04-23T15:25:53.097Z,26.30
2023-04-23T15:28:20.253Z,26.20
2023-04-23T15:30:47.796Z,26.30
2023-04-23T15:33:14.875Z,26.20
2023-04-23T15:35:42.254Z,25.90
2023-04-23T15:38:09.569Z,25.70
2023-04-23T15:40:42.282Z,25.60
2023-04-23T15:43:16.276Z,25.40
2023-04-23T15:45:43.740Z,25.00
2023-04-23T15:48:10.983Z,24.90
2023-04-23T15:50:38.206Z,24.70
2023-04-23T15:53:05.384Z,24.80
2023-04-23T15:55:34.193Z,24.90
2023-04-23T15:58:04.280Z,24.90
2023-04-23T16:00:34.762Z,24.80
2023-04-23T16:03:05.715Z,24.70
2023-04-23T16:05:33.303Z,24.80
2023-04-23T16:08:00.707Z,24.80
2023-04-23T16:10:30.328Z,24.70
2023-04-23T16:12:58.819Z,24.60
2023-04-23T16:15:26.406Z,24.70
2023-04-23T16:17:53.658Z,24.60
2023-04-23T16:20:20.882Z,24.60
2023-04-23T16:22:48.207Z,24.40
2023-04-23T16:25:15.705Z,24.20
2023-04-23T16:27:43.163Z,24.10
2023-04-23T16:30:10.893Z,24.00
2023-04-23T16:32:39.043Z,23.80
2023-04-23T16:35:07.137Z,23.70
2023-04-23T16:37:34.746Z,23.50
2023-04-23T16:40:04.205Z,23.50
2023-04-23T16:42:31.902Z,23.30
2023-04-23T16:44:59.201Z,23.20
2023-04-23T16:47:27.185Z,23.20
2023-04-23T16:49:54.493Z,23.00
2023-04-23T16:52:23.686Z,22.90
2023-04-23T16:54:51.097Z,22.70
2023-04-23T16:57:18.764Z,22.60
2023-04-23T16:59:46.512Z,22.50
2023-04-23T17:02:13.928Z,22.40
2023-04-23T17:04:41.403Z,22.40
2023-04-23T17:07:09.303Z,22.30
2023-04-23T17:09:36.476Z,22.30
2023-04-23T17:12:03.954Z,22.20
2023-04-23T17:14:31.159Z,22.20
2023-04-23T17:16:58.409Z,22.20
2023-04-23T17:19:25.660Z,22.10
2023-04-23T17:21:53.229Z,22.10
2023-04-23T17:24:21.043Z,22.00
2023-04-23T17:26:49.563Z,21.90
2023-04-23T17:29:17.112Z,21.70
2023-04-23T17:31:44.329Z,21.60
2023-04-23T17:34:11.453Z,21.40
2023-04-23T17:36:38.874Z,21.30
2023-04-23T17:39:06.099Z,21.10
2023-04-23T17:41:33.640Z,21.00
2023-04-23T17:44:01.972Z,20.80
2023-04-23T17:46:29.385Z,20.70
2023-04-23T17:48:57.137Z,20.60
2023-04-23T17:51:24.447Z,20.50
2023-04-23T17:53:52.097Z,20.30
2023-04-23T17:56:19.419Z,20.30
2023-04-23T17:58:47.151Z,20.20
2023-04-23T18:01:15.579Z,20.10
2023-04-23T18:03:43.022Z,20.00
2023-04-23T18:06:10.290Z,19.80
2023-04-23T18:08:39.032Z,19.70
2023-04-23T18:11:08.096Z,19.70
2023-04-23T18:13:36.467Z,19.60
2023-04-23T18:16:03.640Z,19.50
2023-04-23T18:18:30.861Z,19.50
2023-04-23T18:20:58.194Z,19.40
2023-04-23T18:23:26.325Z,19.30
2023-04-23T18:25:53.651Z,19.30
2023-04-23T18:28:21.596Z,19.20
2023-04-23T18:30:48.851Z,19.10
2023-04-23T18:33:16.714Z,19.10
2023-04-23T18:35:47.229Z,19.00
2023-04-23T18:38:37.560Z,18.90
2023-04-23T18:41:05.012Z,18.80
2023-04-23T18:43:32.805Z,18.80
2023-04-23T18:46:00.899Z,18.80
2023-04-23T18:48:33.895Z,18.70
2023-04-23T18:51:17.640Z,18.70
2023-04-23T18:53:44.979Z,18.60
2023-04-23T18:56:12.270Z,18.60
2023-04-23T18:58:39.842Z,18.50
2023-04-23T19:01:07.328Z,18.50
2023-04-23T19:03:34.701Z,18.40
2023-04-23T19:06:07.861Z,18.40
2023-04-23T19:08:36.023Z,18.40
2023-04-23T19:11:03.827Z,18.40
2023-04-23T19:13:31.894Z,18.30
2023-04-23T19:16:00.468Z,18.30
2023-04-23T19:18:29.726Z,18.20
2023-04-23T19:20:58.386Z,18.10
2023-04-23T19:23:25.625Z,18.10
2023-04-23T19:25:52.869Z,18.10
2023-04-23T19:28:20.134Z,18.10
2023-04-23T19:30:47.368Z,18.00
2023-04-23T19:33:14.479Z,17.90
2023-04-23T19:35:41.836Z,17.80
2023-04-23T19:38:09.585Z,17.90
2023-04-23T19:40:36.715Z,17.80
2023-04-23T19:43:04.396Z,17.80
2023-04-23T19:45:32.518Z,17.80
2023-04-23T19:48:00.133Z,17.70
2023-04-23T19:50:27.692Z,17.70
2023-04-23T19:52:54.863Z,17.70
2023-04-23T19:55:27.184Z,17.70
2023-04-23T19:57:56.571Z,17.70
2023-04-23T20:00:24.851Z,17.70
2023-04-23T20:02:52.909Z,17.70
2023-04-23T20:05:20.312Z,17.60
2023-04-23T20:07:47.462Z,17.60
2023-04-23T20:10:17.314Z,17.60
2023-04-23T20:12:44.807Z,17.50
2023-04-23T20:15:12.848Z,17.50
2023-04-23T20:17:40.536Z,17.50
2023-04-23T20:20:10.348Z,17.40
2023-04-23T20:22:38.658Z,17.40
2023-04-23T20:25:06.420Z,17.30
2023-04-23T20:27:33.718Z,17.30
2023-04-23T20:30:01.612Z,17.20
2023-04-23T20:32:29.618Z,17.20
2023-04-23T20:34:58.337Z,17.10
2023-04-23T20:37:27.161Z,17.00
2023-04-23T20:39:56.076Z,17.00
2023-04-23T20:42:26.053Z,17.00
2023-04-23T20:44:53.320Z,16.90
2023-04-23T20:47:20.720Z,16.80
2023-04-23T20:49:47.941Z,16.80
2023-04-23T20:52:16.779Z,16.80
2023-04-23T20:54:46.670Z,16.60
2023-04-23T20:57:15.366Z,16.40
2023-04-23T20:59:43.235Z,16.20
2023-04-23T21:02:13.607Z,16.20
2023-04-23T21:04:41.392Z,16.10
2023-04-23T21:07:16.509Z,16.10
2023-04-23T21:09:44.110Z,15.90
2023-04-23T21:12:11.857Z,16.10
2023-04-23T21:14:39.028Z,16.00
2023-04-23T21:17:10.697Z,15.90
2023-04-23T21:19:40.716Z,15.80
2023-04-23T21:22:08.155Z,15.80
2023-04-23T21:24:35.317Z,15.70
2023-04-23T21:27:03.858Z,15.70
2023-04-23T21:29:31.806Z,15.70
2023-04-23T21:31:59.090Z,15.70
2023-04-23T21:34:32.658Z,15.60
2023-04-23T21:36:59.781Z,15.60
2023-04-23T21:39:28.565Z,15.60
2023-04-23T21:41:57.245Z,15.60
2023-04-23T21:44:25.494Z,15.50
2023-04-23T21:46:53.564Z,15.50
2023-04-23T21:49:21.132Z,15.40
2023-04-23T21:51:50.349Z,15.40
2023-04-23T21:54:18.205Z,15.40
2023-04-23T21:56:45.629Z,15.40
2023-04-23T21:59:13.999Z,15.30
2023-04-23T22:01:42.080Z,15.30
2023-04-23T22:04:10.370Z,15.30
2023-04-23T22:06:38.135Z,15.30
2023-04-23T22:09:09.897Z,15.20
2023-04-23T22:11:37.009Z,15.20
2023-04-23T22:14:05.697Z,15.20
2023-04-23T22:16:34.458Z,15.20
2023-04-23T22:19:04.782Z,15.20
2023-04-23T22:21:33.130Z,15.10
2023-04-23T22:24:00.520Z,15.10
2023-04-23T22:26:29.357Z,15.00
2023-04-23T22:28:56.800Z,15.00
2023-04-23T22:31:24.726Z,15.00
2023-04-23T22:33:53.255Z,15.10
2023-04-23T22:36:22.252Z,15.00
2023-04-23T22:38:49.369Z,15.00
2023-04-23T22:41:16.704Z,15.00
2023-04-23T22:43:44.293Z,15.00
2023-04-23T22:46:11.528Z,14.90
2023-04-23T22:48:44.175Z,14.90
2023-04-23T22:51:12.059Z,14.90
2023-04-23T22:53:39.176Z,14.80
2023-04-23T22:56:07.682Z,14.80
2023-04-23T22:58:34.903Z,14.70
2023-04-23T23:01:02.119Z,14.50
2023-04-23T23:03:29.468Z,14.50
2023-04-23T23:05:56.738Z,14.50
2023-04-23T23:08:23.901Z,14.40
2023-04-23T23:10:51.042Z,14.40
2023-04-23T23:13:18.229Z,14.30
2023-04-23T23:15:45.362Z,14.30
2023-04-23T23:18:12.668Z,14.20
2023-04-23T23:20:41.197Z,14.10
2023-04-23T23:23:08.362Z,14.10
2023-04-23T23:25:38.571Z,14.00
2023-04-23T23:28:06.065Z,13.90
2023-04-23T23:30:33.280Z,13.80
2023-04-23T23:33:01.290Z,13.80
2023-04-23T23:35:28.445Z,13.70
2023-04-23T23:37:55.958Z,13.70
2023-04-23T23:40:22.984Z,13.70
2023-04-23T23:42:50.294Z,13.80
2023-04-23T23:45:17.467Z,13.80
2023-04-23T23:47:44.696Z,13.80
2023-04-23T23:50:11.959Z,13.80
2023-04-23T23:52:39.126Z,13.90
2023-04-23T23:55:07.354Z,13.90
2023-04-23T23:57:34.455Z,14.00
